createdAt,value
2023-03-04T00:02:30.117Z,95.64
2023-03-04T00:05:03.587Z,95.32
2023-03-04T00:07:35.482Z,95.27
2023-03-04T00:10:08.369Z,95.31
2023-03-04T00:12:40.122Z,95.18
2023-03-04T00:15:12.880Z,95.22
2023-03-04T00:17:43.054Z,95.48
2023-03-04T00:20:15.652Z,95.46
2023-03-04T00:22:45.905Z,95.20
2023-03-04T00:25:18.097Z,95.19
2023-03-04T00:27:50.049Z,95.29
2023-03-04T00:30:22.362Z,95.28
2023-03-04T00:32:53.029Z,95.22
2023-03-04T00:35:24.936Z,95.09
2023-03-04T00:37:58.599Z,94.94
2023-03-04T00:40:30.355Z,94.95
2023-03-04T00:43:03.443Z,94.74
2023-03-04T00:45:35.208Z,94.64
2023-03-04T00:48:07.320Z,94.51
2023-03-04T00:50:39.380Z,94.48
2023-03-04T00:53:11.589Z,94.43
2023-03-04T00:55:43.328Z,94.45
2023-03-04T00:58:15.113Z,94.52
2023-03-04T01:00:46.859Z,94.59
2023-03-04T01:03:18.616Z,94.27
2023-03-04T01:05:50.347Z,94.13
2023-03-04T01:08:25.120Z,93.80
2023-03-04T01:10:58.549Z,93.51
2023-03-04T01:13:30.279Z,92.86
2023-03-04T01:16:03.419Z,92.65
2023-03-04T01:18:35.263Z,92.45
2023-03-04T01:21:08.383Z,92.29
2023-03-04T01:23:38.715Z,92.26
2023-03-04T01:26:10.713Z,92.29
2023-03-04T01:28:42.505Z,92.38
2023-03-04T01:31:14.445Z,92.15
2023-03-04T01:33:46.522Z,92.07
2023-03-04T01:36:18.374Z,91.86
2023-03-04T01:38:50.268Z,91.85
2023-03-04T01:41:26.927Z,91.70
2023-03-04T01:44:02.441Z,91.54
2023-03-04T01:46:34.649Z,91.25
2023-03-04T01:49:07.234Z,91.13
2023-03-04T01:51:39.006Z,90.86
2023-03-04T01:54:11.523Z,91.01
2023-03-04T01:56:45.621Z,91.01
2023-03-04T01:59:19.941Z,91.15
2023-03-04T02:01:54.439Z,91.25
2023-03-04T02:04:29.279Z,91.42
2023-03-04T02:07:03.436Z,91.28
2023-03-04T02:09:36.035Z,91.08
2023-03-04T02:12:08.277Z,91.12
2023-03-04T02:14:41.124Z,91.04
2023-03-04T02:17:14.851Z,91.04
2023-03-04T02:19:57.783Z,91.10
2023-03-04T02:22:29.688Z,90.79
2023-03-04T02:25:07.402Z,90.56
2023-03-04T02:27:39.230Z,90.38
2023-03-04T02:30:14.531Z,90.39
2023-03-04T02:32:46.327Z,90.07
2023-03-04T02:35:19.234Z,89.96
2023-03-04T02:37:53.551Z,90.04
2023-03-04T02:40:31.852Z,89.99
2023-03-04T02:43:04.502Z,89.94
2023-03-04T02:45:46.217Z,89.78
2023-03-04T02:48:21.622Z,89.76
2023-03-04T02:50:55.025Z,89.81
2023-03-04T02:53:26.934Z,89.83
2023-03-04T02:55:59.016Z,89.60
2023-03-04T02:58:31.236Z,89.54
2023-03-04T03:01:03.099Z,89.37
2023-03-04T03:03:35.268Z,89.34
2023-03-04T03:06:07.886Z,89.05
2023-03-04T03:08:39.686Z,88.77
2023-03-04T03:11:11.576Z,88.73
2023-03-04T03:13:44.645Z,88.61
2023-03-04T03:16:17.047Z,88.27
2023-03-04T03:18:48.991Z,88.39
2023-03-04T03:21:21.316Z,88.59
2023-03-04T03:23:53.058Z,88.33
2023-03-04T03:26:24.986Z,88.08
2023-03-04T03:28:56.757Z,88.06
2023-03-04T03:31:28.674Z,88.16
2023-03-04T03:34:00.764Z,88.04
2023-03-04T03:36:32.784Z,87.89
2023-03-04T03:39:04.563Z,87.69
2023-03-04T03:41:36.562Z,87.84
2023-03-04T03:44:08.401Z,87.72
2023-03-04T03:46:40.180Z,87.54
2023-03-04T03:49:11.935Z,87.44
2023-03-04T03:51:43.617Z,87.34
2023-03-04T03:54:15.661Z,87.31
2023-03-04T03:56:47.426Z,87.46
2023-03-04T03:59:19.518Z,87.53
2023-03-04T04:01:51.611Z,87.53
2023-03-04T04:04:23.452Z,87.49
2023-03-04T04:06:56.036Z,87.41
2023-03-04T04:09:26.876Z,87.33
2023-03-04T04:11:59.493Z,87.50
2023-03-04T04:14:31.258Z,87.62
2023-03-04T04:17:03.033Z,87.60
2023-03-04T04:19:34.756Z,87.79
2023-03-04T04:22:06.596Z,87.64
2023-03-04T04:24:38.702Z,87.48
2023-03-04T04:27:10.634Z,87.28
2023-03-04T04:29:42.929Z,87.34
2023-03-04T04:32:14.630Z,87.38
2023-03-04T04:34:46.485Z,87.58
2023-03-04T04:37:18.190Z,87.43
2023-03-04T04:39:51.808Z,86.97
2023-03-04T04:42:24.306Z,86.63
2023-03-04T04:44:57.244Z,86.28
2023-03-04T04:47:29.014Z,86.28
2023-03-04T04:50:00.741Z,86.57
2023-03-04T04:52:32.525Z,86.72
2023-03-04T04:55:04.762Z,86.99
2023-03-04T04:57:38.067Z,87.38
2023-03-04T05:00:11.932Z,87.52
2023-03-04T05:02:43.821Z,87.51
2023-03-04T05:05:15.790Z,87.56
2023-03-04T05:07:47.511Z,87.73
2023-03-04T05:10:19.090Z,87.79
2023-03-04T05:12:50.989Z,88.03
2023-03-04T05:15:22.731Z,88.05
2023-03-04T05:17:54.463Z,88.05
2023-03-04T05:20:27.125Z,88.29
2023-03-04T05:22:59.207Z,88.47
2023-03-04T05:25:31.027Z,88.41
2023-03-04T05:28:04.830Z,88.67
2023-03-04T05:30:36.716Z,88.82
2023-03-04T05:33:09.407Z,89.12
2023-03-04T05:35:40.749Z,89.21
2023-03-04T05:38:14.172Z,89.40
2023-03-04T05:40:46.982Z,89.55
2023-03-04T05:43:19.261Z,89.81
2023-03-04T05:45:51.589Z,89.70
2023-03-04T05:48:24.053Z,89.59
2023-03-04T05:51:00.837Z,89.90
2023-03-04T05:53:33.040Z,90.27
2023-03-04T05:56:10.159Z,90.42
2023-03-04T05:58:42.017Z,90.44
2023-03-04T06:01:14.474Z,90.78
2023-03-04T06:03:48.528Z,90.69
2023-03-04T06:06:20.381Z,90.74
2023-03-04T06:08:52.307Z,90.97
2023-03-04T06:11:24.651Z,91.04
2023-03-04T06:13:56.749Z,90.99
2023-03-04T06:16:28.477Z,91.23
2023-03-04T06:19:00.301Z,91.23
2023-03-04T06:21:32.134Z,91.31
2023-03-04T06:24:03.910Z,91.43
2023-03-04T06:26:35.723Z,91.58
2023-03-04T06:29:08.307Z,91.67
2023-03-04T06:31:39.780Z,91.81
2023-03-04T06:34:13.328Z,91.80
2023-03-04T06:36:46.187Z,91.92
2023-03-04T06:39:20.021Z,92.13
2023-03-04T06:41:52.959Z,92.23
2023-03-04T06:44:26.883Z,92.43
2023-03-04T06:47:01.431Z,92.33
2023-03-04T06:49:33.228Z,92.37
2023-03-04T06:52:05.254Z,92.26
2023-03-04T06:54:36.874Z,92.39
2023-03-04T06:57:09.035Z,92.51
2023-03-04T06:59:41.354Z,92.53
2023-03-04T07:02:14.526Z,92.64
2023-03-04T07:04:46.509Z,92.92
2023-03-04T07:07:18.351Z,92.85
2023-03-04T07:09:50.141Z,92.84
2023-03-04T07:12:23.099Z,92.79
2023-03-04T07:14:55.152Z,92.99
2023-03-04T07:17:27.063Z,92.94
2023-03-04T07:19:58.928Z,92.75
2023-03-04T07:22:30.860Z,92.84
2023-03-04T07:25:03.201Z,93.10
2023-03-04T07:27:35.232Z,93.11
2023-03-04T07:30:11.592Z,93.04
2023-03-04T07:32:43.476Z,93.05
2023-03-04T07:35:15.260Z,93.23
2023-03-04T07:37:48.275Z,93.03
2023-03-04T07:40:21.825Z,92.96
2023-03-04T07:42:55.825Z,93.11
2023-03-04T07:45:29.117Z,93.24
2023-03-04T07:48:02.733Z,93.33
2023-03-04T07:50:36.646Z,93.28
2023-03-04T07:53:08.578Z,93.21
2023-03-04T07:55:40.945Z,93.10
2023-03-04T07:58:13.198Z,92.98
2023-03-04T08:00:45.186Z,93.34
2023-03-04T08:03:16.911Z,93.10
2023-03-04T08:05:49.050Z,93.04
2023-03-04T08:08:20.817Z,93.00
2023-03-04T08:10:52.498Z,93.11
2023-03-04T08:13:25.915Z,93.28
2023-03-04T08:15:59.392Z,93.29
2023-03-04T08:18:31.278Z,93.18
2023-03-04T08:21:02.970Z,93.31
2023-03-04T08:23:35.019Z,93.47
2023-03-04T08:26:12.602Z,93.67
2023-03-04T08:28:45.684Z,94.06
2023-03-04T08:31:19.037Z,94.37
2023-03-04T08:33:51.229Z,94.29
2023-03-04T08:36:23.129Z,94.40
2023-03-04T08:38:55.021Z,94.87
2023-03-04T08:41:29.468Z,95.11
2023-03-04T08:44:02.564Z,95.43
2023-03-04T08:46:35.050Z,95.51
2023-03-04T08:49:23.967Z,95.89
2023-03-04T08:52:03.518Z,96.16
2023-03-04T08:54:44.322Z,96.26
2023-03-04T08:57:17.595Z,96.78
2023-03-04T08:59:57.813Z,97.25
2023-03-04T09:02:31.200Z,97.43
2023-03-04T09:05:03.583Z,97.51
2023-03-04T09:07:36.876Z,97.75
2023-03-04T09:10:15.193Z,98.31
2023-03-04T09:12:48.787Z,98.64
2023-03-04T09:15:28.879Z,99.11
2023-03-04T09:18:09.915Z,99.40
2023-03-04T09:21:11.495Z,99.94
2023-03-04T09:23:52.101Z,100.00
2023-03-04T09:26:27.136Z,100.00
2023-03-04T09:29:00.114Z,100.00
2023-03-04T09:31:32.925Z,100.00
2023-03-04T09:34:03.515Z,100.00
2023-03-04T09:36:35.488Z,100.00
2023-03-04T09:39:08.357Z,100.00
2023-03-04T09:41:44.247Z,100.00
2023-03-04T09:44:26.832Z,100.00
2023-03-04T09:47:02.489Z,100.00
2023-03-04T09:49:35.626Z,100.00
2023-03-04T09:52:19.635Z,99.95
2023-03-04T09:55:13.925Z,99.54
2023-03-04T09:57:54.856Z,99.95
2023-03-04T10:00:34.138Z,100.00
2023-03-04T10:03:19.882Z,100.00
2023-03-04T10:06:02.008Z,100.00
2023-03-04T10:08:46.670Z,99.99
2023-03-04T10:11:23.996Z,99.33
2023-03-04T10:14:04.450Z,99.48
2023-03-04T10:16:42.753Z,99.51
2023-03-04T10:19:29.788Z,98.17
2023-03-04T10:22:20.848Z,96.22
2023-03-04T10:25:00.308Z,95.74
2023-03-04T10:27:33.777Z,94.85
2023-03-04T10:30:12.360Z,94.73
2023-03-04T10:32:48.852Z,94.43
2023-03-04T10:35:24.049Z,94.15
2023-03-04T10:37:55.968Z,93.75
2023-03-04T10:40:28.501Z,92.49
2023-03-04T10:43:07.123Z,91.65
2023-03-04T10:45:42.479Z,91.16
2023-03-04T10:48:23.741Z,91.06
2023-03-04T10:50:56.062Z,91.32
2023-03-04T10:53:37.781Z,90.76
2023-03-04T10:56:34.907Z,90.88
2023-03-04T10:59:41.446Z,89.16
2023-03-04T11:02:28.620Z,88.84
2023-03-04T11:05:17.553Z,88.69
2023-03-04T11:07:56.343Z,88.00
2023-03-04T11:10:40.419Z,87.15
2023-03-04T11:13:17.782Z,85.70
2023-03-04T11:15:57.525Z,84.77
2023-03-04T11:18:41.473Z,84.08
2023-03-04T11:21:19.868Z,85.19
2023-03-04T11:23:58.300Z,84.51
2023-03-04T11:26:36.350Z,84.66
2023-03-04T11:29:15.017Z,84.33
2023-03-04T11:31:53.037Z,84.04
2023-03-04T11:34:35.097Z,84.18
2023-03-04T11:37:13.138Z,84.06
2023-03-04T11:39:51.829Z,83.88
2023-03-04T11:42:32.790Z,82.97
2023-03-04T11:45:04.900Z,82.84
2023-03-04T11:47:57.928Z,82.28
2023-03-04T11:50:45.558Z,81.59
2023-03-04T11:53:34.696Z,81.38
2023-03-04T11:56:22.740Z,81.07
2023-03-04T11:59:11.094Z,80.70
2023-03-04T12:01:51.323Z,80.25
2023-03-04T12:04:49.670Z,80.07
2023-03-04T12:07:43.966Z,79.90
2023-03-04T12:10:26.878Z,79.35
2023-03-04T12:13:08.569Z,78.57
2023-03-04T12:15:51.260Z,77.91
2023-03-04T12:18:29.357Z,77.31
2023-03-04T12:21:13.071Z,76.76
2023-03-04T12:24:03.566Z,76.45
2023-03-04T12:26:40.788Z,75.72
2023-03-04T12:29:19.098Z,75.87
2023-03-04T12:31:58.198Z,76.26
2023-03-04T12:35:02.299Z,76.13
2023-03-04T12:37:59.470Z,75.59
2023-03-04T12:40:43.462Z,76.24
2023-03-04T12:43:41.333Z,77.08
2023-03-04T12:46:27.683Z,77.20
2023-03-04T12:49:17.474Z,76.99
2023-03-04T12:51:56.467Z,76.04
2023-03-04T12:54:36.064Z,75.70
2023-03-04T12:57:12.084Z,75.31
2023-03-04T12:59:51.512Z,76.67
2023-03-04T13:02:43.104Z,78.96
2023-03-04T13:05:25.633Z,83.01
2023-03-04T13:08:10.096Z,85.49
2023-03-04T13:10:42.198Z,85.94
2023-03-04T13:13:37.214Z,86.91
2023-03-04T13:16:32.484Z,87.76
2023-03-04T13:19:05.292Z,87.37
2023-03-04T13:21:49.143Z,87.18
2023-03-04T13:24:47.626Z,86.54
2023-03-04T13:27:50.544Z,86.23
2023-03-04T13:30:44.756Z,85.74
2023-03-04T13:33:46.257Z,84.88
2023-03-04T13:36:33.299Z,84.35
2023-03-04T13:39:24.413Z,83.86
2023-03-04T13:41:57.852Z,83.50
2023-03-04T13:45:00.502Z,83.05
2023-03-04T13:47:45.615Z,83.26
2023-03-04T13:50:35.341Z,83.31
2023-03-04T13:53:34.024Z,83.70
2023-03-04T13:56:36.619Z,83.17
2023-03-04T13:59:27.181Z,83.73
2023-03-04T14:02:02.096Z,84.71
2023-03-04T14:04:37.339Z,84.84
2023-03-04T14:07:25.010Z,85.04
2023-03-04T14:10:04.912Z,85.78
2023-03-04T14:12:42.423Z,85.80
2023-03-04T14:15:25.453Z,84.96
2023-03-04T14:17:58.155Z,83.75
2023-03-04T14:20:32.577Z,81.41
2023-03-04T14:23:23.296Z,79.94
2023-03-04T14:26:04.471Z,78.54
2023-03-04T14:28:46.314Z,76.52
2023-03-04T14:31:21.907Z,74.79
2023-03-04T14:34:00.144Z,74.16
2023-03-04T14:36:34.804Z,74.37
2023-03-04T14:39:08.352Z,73.35
2023-03-04T14:41:44.262Z,72.99
2023-03-04T14:44:24.700Z,73.36
2023-03-04T14:47:07.820Z,73.62
2023-03-04T14:49:41.215Z,73.39
2023-03-04T14:52:34.326Z,73.01
2023-03-04T14:55:22.118Z,73.36
2023-03-04T14:57:59.117Z,73.83
2023-03-04T15:00:34.259Z,74.01
2023-03-04T15:06:31.069Z,73.97
2023-03-04T15:09:06.986Z,73.43
2023-03-04T15:11:49.314Z,73.34
2023-03-04T15:14:46.219Z,72.70
2023-03-04T15:17:32.895Z,72.60
2023-03-04T15:20:20.801Z,72.75
2023-03-04T15:23:08.396Z,73.10
2023-03-04T15:25:41.479Z,73.64
2023-03-04T15:28:20.823Z,74.24
2023-03-04T15:30:54.679Z,74.57
2023-03-04T15:33:26.996Z,74.99
2023-03-04T15:36:01.896Z,75.54
2023-03-04T15:38:34.991Z,75.49
2023-03-04T15:41:10.024Z,75.29
2023-03-04T15:43:41.921Z,75.15
2023-03-04T15:46:16.889Z,75.18
2023-03-04T15:48:50.951Z,74.62
2023-03-04T15:51:25.535Z,74.79
2023-03-04T15:54:00.197Z,75.21
2023-03-04T15:56:34.940Z,75.78
2023-03-04T15:59:12.855Z,76.04
2023-03-04T16:01:45.362Z,76.21
2023-03-04T16:04:16.922Z,76.44
2023-03-04T16:06:51.509Z,76.98
2023-03-04T16:09:24.920Z,77.43
2023-03-04T16:12:01.817Z,77.26
2023-03-04T16:14:34.067Z,76.80
2023-03-04T16:17:08.416Z,76.31
2023-03-04T16:19:39.297Z,75.72
2023-03-04T16:22:17.577Z,74.65
2023-03-04T16:24:50.187Z,73.77
2023-03-04T16:27:24.487Z,73.48
2023-03-04T16:29:57.306Z,72.78
2023-03-04T16:32:30.885Z,72.01
2023-03-04T16:35:04.509Z,71.53
2023-03-04T16:37:36.697Z,71.22
2023-03-04T16:40:14.024Z,71.01
2023-03-04T16:42:46.349Z,71.22
2023-03-04T16:45:19.816Z,71.33
2023-03-04T16:47:52.206Z,71.82
2023-03-04T16:50:27.396Z,71.94
2023-03-04T16:52:59.976Z,72.16
2023-03-04T16:55:33.516Z,72.46
2023-03-04T16:58:07.402Z,72.58
2023-03-04T17:00:40.687Z,72.27
2023-03-04T17:03:14.982Z,72.17
2023-03-04T17:05:47.712Z,73.22
2023-03-04T17:08:19.827Z,73.13
2023-03-04T17:10:53.448Z,72.43
2023-03-04T17:13:25.864Z,71.69
2023-03-04T17:16:03.357Z,70.95
2023-03-04T17:18:35.678Z,70.35
2023-03-04T17:21:11.871Z,70.36
2023-03-04T17:23:43.850Z,70.20
2023-03-04T17:26:16.648Z,69.24
2023-03-04T17:28:48.592Z,68.14
2023-03-04T17:31:22.463Z,66.71
2023-03-04T17:33:54.456Z,65.45
2023-03-04T17:36:26.622Z,64.56
2023-03-04T17:38:58.580Z,63.42
2023-03-04T17:41:30.988Z,63.46
2023-03-04T17:44:03.831Z,62.68
2023-03-04T17:46:36.086Z,62.27
2023-03-04T17:49:08.594Z,62.27
2023-03-04T17:51:42.073Z,61.98
2023-03-04T17:54:14.525Z,61.69
2023-03-04T17:56:46.817Z,61.08
2023-03-04T17:59:19.853Z,60.60
2023-03-04T18:01:54.204Z,60.78
2023-03-04T18:04:26.387Z,60.44
2023-03-04T18:06:58.621Z,60.41
2023-03-04T18:09:30.567Z,60.14
2023-03-04T18:12:02.320Z,59.98
2023-03-04T18:14:34.474Z,60.08
2023-03-04T18:17:06.392Z,60.15
2023-03-04T18:19:38.212Z,61.08
2023-03-04T18:22:09.905Z,61.69
2023-03-04T18:24:43.590Z,61.30
2023-03-04T18:27:15.442Z,61.41
2023-03-04T18:29:47.142Z,62.30
2023-03-04T18:32:19.540Z,62.09
2023-03-04T18:34:51.664Z,61.20
2023-03-04T18:37:23.961Z,61.19
2023-03-04T18:39:56.380Z,61.96
2023-03-04T18:42:28.731Z,61.12
2023-03-04T18:45:01.634Z,62.24
2023-03-04T18:47:37.187Z,61.81
2023-03-04T18:50:11.197Z,62.01
2023-03-04T18:52:43.124Z,61.73
2023-03-04T18:55:15.778Z,61.21
2023-03-04T18:57:47.313Z,62.13
2023-03-04T19:00:21.609Z,63.14
2023-03-04T19:02:57.678Z,63.38
2023-03-04T19:05:32.524Z,62.65
2023-03-04T19:08:06.674Z,61.66
2023-03-04T19:10:38.620Z,63.07
2023-03-04T19:15:20.051Z,64.19
2023-03-04T19:17:52.357Z,64.44
2023-03-04T19:20:24.530Z,64.38
2023-03-04T19:22:56.518Z,63.65
2023-03-04T19:26:15.271Z,59.85
2023-03-04T19:28:48.202Z,59.65
2023-03-04T19:31:20.127Z,60.59
2023-03-04T19:33:53.057Z,62.49
2023-03-04T19:36:25.934Z,63.37
2023-03-04T19:39:07.360Z,62.02
2023-03-04T19:41:45.730Z,61.51
2023-03-04T19:44:18.252Z,60.28
2023-03-04T19:46:52.209Z,59.76
2023-03-04T19:49:24.443Z,60.09
2023-03-04T19:51:56.390Z,59.91
2023-03-04T19:54:28.978Z,60.91
2023-03-04T19:57:02.467Z,62.49
2023-03-04T19:59:37.468Z,61.97
2023-03-04T20:02:20.781Z,61.13
2023-03-04T20:04:51.388Z,63.18
2023-03-04T20:07:23.232Z,63.55
2023-03-04T20:09:57.050Z,62.14
2023-03-04T20:12:31.264Z,60.48
2023-03-04T20:15:03.428Z,61.97
2023-03-04T20:17:35.337Z,62.44
2023-03-04T20:20:10.759Z,62.38
2023-03-04T20:22:42.916Z,62.92
2023-03-04T20:25:15.032Z,60.01
2023-03-04T20:27:47.545Z,60.59
2023-03-04T20:30:20.580Z,59.35
2023-03-04T20:32:52.420Z,59.98
2023-03-04T20:35:24.601Z,61.14
2023-03-04T20:37:56.925Z,60.27
2023-03-04T20:40:29.215Z,59.54
2023-03-04T20:43:02.458Z,60.95
2023-03-04T20:45:37.394Z,61.99
2023-03-04T20:48:10.000Z,61.58
2023-03-04T20:50:42.614Z,61.92
2023-03-04T20:53:14.304Z,61.19
2023-03-04T20:55:46.358Z,60.95
2023-03-04T20:58:18.992Z,61.22
2023-03-04T21:00:55.589Z,61.79
2023-03-04T21:03:27.558Z,62.38
2023-03-04T21:06:03.157Z,62.60
2023-03-04T21:08:35.253Z,62.64
2023-03-04T21:11:07.438Z,63.06
2023-03-04T21:13:42.376Z,63.89
2023-03-04T21:16:19.157Z,63.50
2023-03-04T21:18:53.072Z,63.16
2023-03-04T21:21:27.802Z,63.54
2023-03-04T21:24:01.982Z,63.54
2023-03-04T21:27:16.147Z,63.09
2023-03-04T21:30:00.225Z,63.64
2023-03-04T21:32:45.594Z,64.21
2023-03-04T21:35:45.362Z,64.78
2023-03-04T21:39:02.676Z,64.52
2023-03-04T21:42:02.431Z,64.85
2023-03-04T21:44:50.418Z,66.16
2023-03-04T21:48:13.229Z,65.08
2023-03-04T21:51:28.394Z,65.28
2023-03-04T21:55:03.727Z,65.63
2023-03-04T21:58:56.515Z,65.27
2023-03-04T22:02:28.735Z,65.12
2023-03-04T22:05:27.808Z,65.24
2023-03-04T22:08:03.430Z,65.07
2023-03-04T22:10:54.868Z,64.86
2023-03-04T22:14:10.281Z,65.34
2023-03-04T22:17:44.247Z,65.35
2023-03-04T22:20:51.483Z,65.21
2023-03-04T22:23:56.017Z,65.25
2023-03-04T22:26:33.433Z,65.27
2023-03-04T22:29:06.340Z,65.25
2023-03-04T22:31:39.486Z,65.38
2023-03-04T22:34:14.768Z,65.29
2023-03-04T22:36:49.292Z,65.19
2023-03-04T22:39:23.430Z,65.12
2023-03-04T22:41:55.764Z,65.43
2023-03-04T22:44:28.182Z,66.13
2023-03-04T22:46:59.996Z,66.08
2023-03-04T22:49:33.281Z,65.34
2023-03-04T22:52:05.606Z,65.70
2023-03-04T22:54:37.779Z,65.64
2023-03-04T22:57:09.961Z,65.90
2023-03-04T22:59:41.807Z,65.93
2023-03-04T23:02:13.664Z,65.47
2023-03-04T23:04:46.023Z,65.34
2023-03-04T23:07:18.528Z,66.37
2023-03-04T23:09:50.329Z,65.85
2023-03-04T23:12:22.707Z,65.50
2023-03-04T23:14:55.510Z,66.09
2023-03-04T23:17:27.598Z,66.38
2023-03-04T23:19:59.546Z,66.46
2023-03-04T23:22:31.802Z,66.52
2023-03-04T23:25:03.769Z,66.74
2023-03-04T23:27:35.694Z,66.72
2023-03-04T23:30:10.656Z,66.89
2023-03-04T23:32:43.734Z,67.10
2023-03-04T23:35:16.636Z,67.50
2023-03-04T23:37:50.012Z,67.19
2023-03-04T23:40:22.113Z,67.86
2023-03-04T23:42:54.251Z,68.51
2023-03-04T23:45:26.264Z,68.30
2023-03-04T23:47:58.757Z,68.07
2023-03-04T23:50:32.210Z,68.02
2023-03-04T23:53:04.037Z,68.73
2023-03-04T23:55:36.072Z,68.91
2023-03-04T23:58:07.823Z,68.92
